Thornton, Illinois
Current Conditions -  °F | °C
As of 6:55 AM on Saturday 22 Nov 2014 (Local Time) from KIGQ Reporting Station
Overcast Overcast  
Wind Chill: 29°   Ceiling: 1600
Heat Index: 36°   Visibility: 7mi
Dew Point: 33°   Wind: 9mph
Humidity: 90%   Direction: 210°SSW
Pressure: 30.08"   Gusts: NA
Location:  41.57°N, 87.61°W
Report Text: KIGQ 221255Z AUTO 21008KT 7SM OVC016 02/01 A3008 RMK AO2 T00200005
Loading
Personal Weather Stations






























Interactive Weather Map New forecast layout! Learn more

10-Day Weather Forecast

Advertisements
Track Severe Weather on mobile